Time;durP1;ratioP1;P1;durP2;ratioP2;P2;SDS_P1;SDS_P2;PMS_P1;PMS_P2;Temp;Humidity;BMP_temperature;BMP_pressure;BME280_temperature;BME280_humidity;BME280_pressure;Samples;Min_cycle;Max_cycle;Signal;HPM_P1;HPM_P2
2022/12/07 00:01:23;;;;;;;0.50;0.50;;;3.80;99.90;;;;;;5134796;27;20517;-80
2022/12/07 00:03:52;;;;;;;1.00;1.00;;;3.80;99.90;;;;;;5134721;27;20934;-80
2022/12/07 00:06:19;;;;;;;1.20;0.63;;;3.80;99.90;;;;;;5134928;27;20523;-80
2022/12/07 00:08:47;;;;;;;1.90;0.50;;;3.70;99.90;;;;;;5134652;27;20964;-80
2022/12/07 00:11:16;;;;;;;0.50;0.50;;;3.70;99.90;;;;;;5134604;27;20454;-80
2022/12/07 00:13:43;;;;;;;0.50;0.50;;;3.70;99.90;;;;;;5134874;27;20451;-80
2022/12/07 00:16:11;;;;;;;1.53;0.90;;;3.80;99.90;;;;;;5134804;27;20462;-80
2022/12/07 00:18:40;;;;;;;0.30;0.20;;;3.80;99.90;;;;;;5134742;27;20439;-79
2022/12/07 00:21:11;;;;;;;1.17;0.40;;;3.90;99.90;;;;;;5134404;27;20477;-80
2022/12/07 00:23:38;;;;;;;0.53;0.40;;;3.90;99.90;;;;;;5134724;27;20442;-79
2022/12/07 00:26:06;;;;;;;0.30;0.30;;;3.90;99.90;;;;;;5134298;27;20989;-80
2022/12/07 00:28:34;;;;;;;0.30;0.20;;;3.90;99.90;;;;;;5134672;27;20449;-80
2022/12/07 00:31:03;;;;;;;0.40;0.40;;;4.00;99.90;;;;;;5134642;27;20451;-80
2022/12/07 00:33:29;;;;;;;0.50;0.50;;;3.90;99.90;;;;;;5134546;27;20452;-80
2022/12/07 00:35:59;;;;;;;1.47;0.43;;;3.90;99.90;;;;;;5134523;27;20830;-80
2022/12/07 00:38:28;;;;;;;0.57;0.30;;;3.90;99.90;;;;;;5134550;27;20443;-80
2022/12/07 00:40:56;;;;;;;0.50;0.50;;;3.80;99.90;;;;;;5134435;27;20474;-80
2022/12/07 00:43:23;;;;;;;0.50;0.50;;;3.90;99.90;;;;;;5134798;27;21002;-80
2022/12/07 00:45:50;;;;;;;0.30;0.30;;;3.90;99.90;;;;;;5134331;27;20463;-80
2022/12/07 00:48:16;;;;;;;0.63;0.60;;;3.90;99.90;;;;;;5137012;27;20449;-79
2022/12/07 00:50:43;;;;;;;4.33;0.53;;;3.80;99.90;;;;;;5134098;27;20976;-80
2022/12/07 00:53:11;;;;;;;0.40;0.30;;;3.90;99.90;;;;;;5134385;27;20446;-79
2022/12/07 00:55:39;;;;;;;0.40;0.40;;;3.90;99.90;;;;;;5134266;27;20466;-79
2022/12/07 00:58:06;;;;;;;1.17;1.17;;;3.90;99.90;;;;;;5134344;27;20427;-80
2022/12/07 01:00:34;;;;;;;0.30;0.30;;;3.90;99.90;;;;;;5137439;27;20867;-79
2022/12/07 01:03:01;;;;;;;0.40;0.40;;;3.90;99.90;;;;;;5138540;27;20867;-80
2022/12/07 01:05:28;;;;;;;0.87;0.30;;;3.90;99.90;;;;;;5138770;27;20469;-80
2022/12/07 01:07:55;;;;;;;0.50;0.50;;;3.90;99.90;;;;;;5138439;27;20450;-79
2022/12/07 01:10:24;;;;;;;2.40;0.83;;;3.90;99.90;;;;;;5138400;27;20435;-79
2022/12/07 01:12:50;;;;;;;1.10;0.70;;;3.80;99.90;;;;;;5138330;27;20460;-79
2022/12/07 01:15:17;;;;;;;2.00;1.13;;;3.90;99.90;;;;;;5138236;27;20462;-80
2022/12/07 01:17:44;;;;;;;0.70;0.40;;;3.90;99.90;;;;;;5138669;27;20465;-80
2022/12/07 01:20:12;;;;;;;0.40;0.40;;;3.90;99.90;;;;;;5137864;27;20850;-80
2022/12/07 01:22:39;;;;;;;0.63;0.40;;;3.90;99.90;;;;;;5138197;27;20431;-80
2022/12/07 01:25:07;;;;;;;2.07;0.90;;;3.90;99.90;;;;;;5138053;27;20493;-80
2022/12/07 01:27:36;;;;;;;0.73;0.70;;;3.90;99.90;;;;;;5137769;27;20442;-80
2022/12/07 01:30:06;;;;;;;1.63;0.50;;;3.90;99.90;;;;;;5138041;27;20469;-80
2022/12/07 01:32:33;;;;;;;0.53;0.43;;;3.90;99.90;;;;;;5138027;27;20431;-79
2022/12/07 01:35:00;;;;;;;2.10;0.93;;;3.80;99.90;;;;;;5137872;27;20472;-79
2022/12/07 01:37:27;;;;;;;0.43;0.43;;;3.80;99.90;;;;;;5137887;27;20458;-80
2022/12/07 01:39:54;;;;;;;0.47;0.37;;;3.80;99.90;;;;;;5137764;27;20478;-80
2022/12/07 01:42:20;;;;;;;1.47;0.87;;;3.70;99.90;;;;;;5137540;27;21051;-80
2022/12/07 01:45:34;;;;;;;0.40;0.30;;;3.80;99.90;;;;;;5137681;27;20452;-80
2022/12/07 01:48:02;;;;;;;0.57;0.57;;;3.80;99.90;;;;;;5137761;27;20438;-80
2022/12/07 01:50:31;;;;;;;0.60;0.40;;;3.80;99.90;;;;;;5137621;27;20533;-80
2022/12/07 01:52:59;;;;;;;1.50;0.57;;;3.70;99.90;;;;;;5137615;27;20499;-80
2022/12/07 01:55:27;;;;;;;0.50;0.50;;;3.70;99.90;;;;;;5137450;27;20462;-80
2022/12/07 01:57:56;;;;;;;0.37;0.37;;;3.70;99.90;;;;;;5137511;27;20445;-80
2022/12/07 02:00:24;;;;;;;0.40;0.40;;;3.70;99.90;;;;;;5137084;27;20474;-80
2022/12/07 02:02:55;;;;;;;0.40;0.40;;;3.70;99.90;;;;;;5137405;27;20443;-80
2022/12/07 02:05:23;;;;;;;3.50;0.50;;;3.70;99.90;;;;;;5137012;27;20985;-80
2022/12/07 02:07:51;;;;;;;0.47;0.47;;;3.70;99.90;;;;;;5137023;27;20942;-80
2022/12/07 02:10:20;;;;;;;0.63;0.53;;;3.70;99.90;;;;;;5136511;27;20439;-80
2022/12/07 02:12:50;;;;;;;0.47;0.47;;;3.70;99.90;;;;;;5136316;27;20451;-80
2022/12/07 02:15:18;;;;;;;0.37;0.37;;;3.70;99.90;;;;;;5136788;27;20463;-80
2022/12/07 02:17:52;;;;;;;0.30;0.20;;;3.70;99.90;;;;;;5137029;27;20451;-80
2022/12/07 02:20:26;;;;;;;0.70;0.70;;;3.70;99.90;;;;;;5137154;27;20462;-80
2022/12/07 02:23:13;;;;;;;0.40;0.40;;;3.70;99.90;;;;;;5137075;27;20450;-80
2022/12/07 02:26:03;;;;;;;0.40;0.40;;;3.70;99.90;;;;;;5136651;27;20984;-80
2022/12/07 02:28:34;;;;;;;0.80;0.67;;;3.60;99.90;;;;;;5136645;27;20839;-80
2022/12/07 02:31:08;;;;;;;0.30;0.20;;;3.60;99.90;;;;;;5136923;27;20420;-80
2022/12/07 02:33:41;;;;;;;0.73;0.73;;;3.60;99.90;;;;;;5136871;27;20427;-80
2022/12/07 02:36:13;;;;;;;10.90;0.57;;;3.60;99.90;;;;;;5136730;27;20469;-79
2022/12/07 02:38:45;;;;;;;1.33;0.93;;;3.60;99.90;;;;;;5136445;27;20906;-80
2022/12/07 02:41:17;;;;;;;0.40;0.40;;;3.60;99.90;;;;;;5136349;27;20458;-80
2022/12/07 02:43:47;;;;;;;0.80;0.57;;;3.60;99.90;;;;;;5136340;27;20428;-79
2022/12/07 02:46:18;;;;;;;1.13;0.83;;;3.60;99.90;;;;;;5136746;27;20467;-80
2022/12/07 02:48:46;;;;;;;0.40;0.40;;;3.60;99.90;;;;;;5136554;27;20427;-79
2022/12/07 02:51:13;;;;;;;0.40;0.30;;;3.60;99.90;;;;;;5136432;27;20449;-80
2022/12/07 02:53:42;;;;;;;0.30;0.30;;;3.60;99.90;;;;;;5136446;27;20442;-79
2022/12/07 02:56:18;;;;;;;0.30;0.30;;;3.60;99.90;;;;;;5135967;27;21011;-80
2022/12/07 02:58:54;;;;;;;0.33;0.33;;;3.60;99.90;;;;;;5136354;27;20803;-80
2022/12/07 03:01:32;;;;;;;0.40;0.30;;;3.60;99.90;;;;;;5136205;27;20467;-79
2022/12/07 03:04:06;;;;;;;0.40;0.37;;;3.60;99.90;;;;;;5135932;27;20902;-80
2022/12/07 03:06:41;;;;;;;0.70;0.43;;;3.60;99.90;;;;;;5136138;27;20465;-80
2022/12/07 03:09:15;;;;;;;1.07;0.50;;;3.60;99.90;;;;;;5136103;27;20488;-80
2022/12/07 03:11:48;;;;;;;0.60;0.40;;;3.60;99.90;;;;;;5136120;27;20434;-80
2022/12/07 03:14:19;;;;;;;1.27;0.33;;;3.60;99.90;;;;;;5136101;27;20496;-80
2022/12/07 03:16:53;;;;;;;2.67;0.77;;;3.60;99.90;;;;;;5135852;27;20494;-80
2022/12/07 03:19:23;;;;;;;0.30;0.30;;;3.60;99.90;;;;;;5135937;27;20427;-80
2022/12/07 03:21:55;;;;;;;0.37;0.33;;;3.60;99.90;;;;;;5134852;27;21000;-80
2022/12/07 03:24:28;;;;;;;4.30;0.80;;;3.60;99.90;;;;;;5135857;27;20426;-79
2022/12/07 03:27:00;;;;;;;4.00;1.20;;;3.60;99.90;;;;;;5135774;27;20833;-80
2022/12/07 03:29:31;;;;;;;1.30;0.60;;;3.60;99.90;;;;;;5135758;27;20444;-80
2022/12/07 03:32:05;;;;;;;1.73;0.70;;;3.60;99.90;;;;;;5135613;27;20442;-80
2022/12/07 03:34:35;;;;;;;0.70;0.50;;;3.60;99.90;;;;;;5135582;27;20429;-79
2022/12/07 03:37:06;;;;;;;1.80;0.60;;;3.60;99.90;;;;;;5135568;27;20435;-80
2022/12/07 03:39:39;;;;;;;5.83;1.37;;;3.60;99.90;;;;;;5135491;27;20431;-80
2022/12/07 03:42:08;;;;;;;1.07;0.83;;;3.50;99.90;;;;;;5135529;27;20449;-80
2022/12/07 03:44:37;;;;;;;0.40;0.40;;;3.50;99.90;;;;;;5135337;27;20858;-80
2022/12/07 03:47:13;;;;;;;0.30;0.30;;;3.50;99.90;;;;;;5135363;27;20438;-79
2022/12/07 03:49:45;;;;;;;0.90;0.90;;;3.50;99.90;;;;;;5135352;27;20813;-80
2022/12/07 03:52:23;;;;;;;1.00;0.60;;;3.50;99.90;;;;;;5135318;27;20426;-80
2022/12/07 03:54:56;;;;;;;0.70;0.70;;;3.40;99.90;;;;;;5134891;27;20839;-80
2022/12/07 03:57:25;;;;;;;0.40;0.37;;;3.40;99.90;;;;;;5135216;27;20427;-79
2022/12/07 03:59:55;;;;;;;1.07;1.07;;;3.40;99.90;;;;;;5134718;27;20447;-79
2022/12/07 04:02:25;;;;;;;0.50;0.40;;;3.50;99.90;;;;;;5135365;27;20771;-80
2022/12/07 04:04:52;;;;;;;0.37;0.30;;;3.40;99.90;;;;;;5134671;27;20463;-80
2022/12/07 04:07:19;;;;;;;1.23;0.40;;;3.40;99.90;;;;;;5134990;27;20443;-80
2022/12/07 04:09:46;;;;;;;0.60;0.37;;;3.40;99.90;;;;;;5134592;27;20933;-80
2022/12/07 04:12:13;;;;;;;0.50;0.50;;;3.40;99.90;;;;;;5134571;27;20450;-80
2022/12/07 04:14:40;;;;;;;0.30;0.30;;;3.40;99.90;;;;;;5134516;27;20939;-79
2022/12/07 04:17:07;;;;;;;0.70;0.70;;;3.40;99.90;;;;;;5134497;27;20817;-80
2022/12/07 04:19:35;;;;;;;1.80;0.70;;;3.40;99.90;;;;;;5134915;27;20454;-79
2022/12/07 04:22:04;;;;;;;0.40;0.40;;;3.40;99.90;;;;;;5134305;27;20498;-80
2022/12/07 04:24:31;;;;;;;4.70;0.93;;;3.40;99.90;;;;;;5134428;27;20447;-80
2022/12/07 04:26:58;;;;;;;0.30;0.30;;;3.40;99.90;;;;;;5134650;27;20443;-80
2022/12/07 04:29:25;;;;;;;0.57;0.57;;;3.30;99.90;;;;;;5134578;27;20454;-80
2022/12/07 04:31:52;;;;;;;0.30;0.30;;;3.30;99.90;;;;;;5134283;27;20446;-79
2022/12/07 04:34:20;;;;;;;0.60;0.50;;;3.30;99.90;;;;;;5133483;27;20451;-79
2022/12/07 04:36:48;;;;;;;1.60;0.60;;;3.30;99.90;;;;;;5134099;27;20463;-80
2022/12/07 04:39:20;;;;;;;0.40;0.40;;;3.30;99.90;;;;;;5134514;27;20442;-80
2022/12/07 04:41:47;;;;;;;0.50;0.40;;;3.30;99.90;;;;;;5134519;27;20821;-79
2022/12/07 04:44:14;;;;;;;0.40;0.30;;;3.30;99.90;;;;;;5134383;27;20450;-80
2022/12/07 04:46:42;;;;;;;0.60;0.30;;;3.30;99.90;;;;;;5136714;27;20831;-79
2022/12/07 04:49:09;;;;;;;0.30;0.30;;;3.30;99.90;;;;;;5137831;27;20500;-79
2022/12/07 04:51:35;;;;;;;1.70;0.70;;;3.30;99.90;;;;;;5137406;27;21059;-79
2022/12/07 04:54:04;;;;;;;0.30;0.30;;;3.30;99.90;;;;;;5135638;27;20443;-79
2022/12/07 04:56:30;;;;;;;0.40;0.37;;;3.30;99.90;;;;;;5133942;27;20832;-80
2022/12/07 04:58:57;;;;;;;0.30;0.30;;;3.30;99.90;;;;;;5133920;27;20899;-79
2022/12/07 05:01:25;;;;;;;0.40;0.40;;;3.30;99.90;;;;;;5134193;27;20478;-80
2022/12/07 05:03:52;;;;;;;0.30;0.20;;;3.20;99.90;;;;;;5134303;27;20443;-80
2022/12/07 05:06:18;;;;;;;0.40;0.37;;;3.20;99.90;;;;;;5134164;27;20544;-80
2022/12/07 05:08:46;;;;;;;0.60;0.40;;;3.20;99.90;;;;;;5133864;27;20453;-80
2022/12/07 05:11:37;;;;;;;0.73;0.30;;;3.00;99.90;;;;;;5134244;27;20814;-80
2022/12/07 05:14:03;;;;;;;0.30;0.30;;;3.00;99.90;;;;;;5133832;28;20858;-80
2022/12/07 05:16:30;;;;;;;3.70;0.60;;;2.90;99.90;;;;;;5134066;27;20550;-79
2022/12/07 05:18:57;;;;;;;0.67;0.67;;;2.80;99.90;;;;;;5134080;27;20442;-79
2022/12/07 05:21:24;;;;;;;0.50;0.50;;;2.70;99.90;;;;;;5133659;27;20493;-80
2022/12/07 05:23:51;;;;;;;0.30;0.20;;;2.70;99.90;;;;;;5134039;27;20447;-79
2022/12/07 05:26:19;;;;;;;0.40;0.40;;;2.70;99.90;;;;;;5133672;27;20459;-79
2022/12/07 05:28:50;;;;;;;0.40;0.30;;;2.70;99.90;;;;;;5133739;27;20945;-80
2022/12/07 05:31:17;;;;;;;0.30;0.20;;;2.70;99.90;;;;;;5134058;27;20434;-80
2022/12/07 05:33:43;;;;;;;0.30;0.30;;;2.70;99.90;;;;;;5134073;27;20442;-79
2022/12/07 05:36:10;;;;;;;3.53;0.50;;;2.60;99.90;;;;;;5133907;27;20470;-80
2022/12/07 05:38:37;;;;;;;0.90;0.50;;;2.50;99.90;;;;;;5133954;27;20443;-80
2022/12/07 05:41:06;;;;;;;0.30;0.23;;;2.40;99.90;;;;;;5133869;27;20485;-80
2022/12/07 05:43:34;;;;;;;0.40;0.30;;;2.40;99.90;;;;;;5133906;27;20439;-80
2022/12/07 05:46:01;;;;;;;0.57;0.57;;;2.30;99.90;;;;;;5135883;27;20470;-80
2022/12/07 05:48:28;;;;;;;0.70;0.63;;;2.30;99.90;;;;;;5137420;27;20446;-80
2022/12/07 05:50:55;;;;;;;0.30;0.30;;;2.20;99.90;;;;;;5137682;27;20438;-80
2022/12/07 05:53:21;;;;;;;1.50;0.83;;;2.10;99.90;;;;;;5137609;27;20451;-80
2022/12/07 05:55:48;;;;;;;0.30;0.30;;;2.10;99.90;;;;;;5137472;27;20492;-80
2022/12/07 06:01:00;;;;;;;0.40;0.37;;;1.90;99.90;;;;;;5137476;27;20458;-80
2022/12/07 06:03:27;;;;;;;0.30;0.30;;;1.90;99.90;;;;;;5137390;27;20809;-80
2022/12/07 06:05:54;;;;;;;0.30;0.30;;;1.90;99.90;;;;;;5137311;27;20474;-80
2022/12/07 06:08:21;;;;;;;0.53;0.53;;;1.90;99.90;;;;;;5137397;27;20438;-80
2022/12/07 06:12:33;;;;;;;0.93;0.47;;;1.90;99.90;;;;;;5137268;27;20454;-80
2022/12/07 06:13:36;;;;;;;0.30;0.30;;;1.80;99.90;;;;;;5136798;27;20484;-80
2022/12/07 06:16:05;;;;;;;0.33;0.30;;;1.80;99.90;;;;;;5137136;27;20969;-80
2022/12/07 06:18:31;;;;;;;0.50;0.40;;;1.80;99.90;;;;;;5137155;27;20197;-80
2022/12/07 06:20:58;;;;;;;0.37;0.37;;;1.90;99.90;;;;;;5136658;27;20490;-80
2022/12/07 06:23:25;;;;;;;0.30;0.30;;;2.00;99.90;;;;;;5137033;27;20449;-80
2022/12/07 06:25:52;;;;;;;0.40;0.40;;;2.00;99.90;;;;;;5136939;27;20469;-80
2022/12/07 06:28:18;;;;;;;0.30;0.30;;;2.10;99.90;;;;;;5136961;27;20446;-80
2022/12/07 06:30:45;;;;;;;1.90;0.60;;;2.10;99.90;;;;;;5136893;27;20445;-80
2022/12/07 06:33:13;;;;;;;1.90;0.57;;;2.10;99.90;;;;;;5137586;27;20534;-80
2022/12/07 06:35:40;;;;;;;0.40;0.40;;;2.20;99.90;;;;;;5136733;27;20437;-80
2022/12/07 06:38:07;;;;;;;0.40;0.40;;;2.20;99.90;;;;;;5136736;27;20454;-80
2022/12/07 06:40:33;;;;;;;2.30;0.70;;;2.30;99.90;;;;;;5136645;27;20457;-80
2022/12/07 06:43:00;;;;;;;0.50;0.50;;;2.40;99.90;;;;;;5136643;27;20446;-80
2022/12/07 06:45:27;;;;;;;0.30;0.20;;;2.30;99.90;;;;;;5136585;27;20465;-80
2022/12/07 06:47:54;;;;;;;0.90;0.90;;;2.40;99.90;;;;;;5136563;27;20447;-80
2022/12/07 06:50:22;;;;;;;0.30;0.30;;;2.40;99.90;;;;;;5136542;27;20443;-80
2022/12/07 06:52:49;;;;;;;0.30;0.30;;;2.40;99.90;;;;;;5136485;27;20446;-80
2022/12/07 06:55:15;;;;;;;1.43;0.57;;;2.40;99.90;;;;;;5136365;27;20459;-80
2022/12/07 06:57:42;;;;;;;0.80;0.70;;;2.40;99.90;;;;;;5135604;27;20442;-80
2022/12/07 07:00:10;;;;;;;1.27;0.47;;;2.30;99.90;;;;;;5136015;27;20462;-80
2022/12/07 07:02:37;;;;;;;0.60;0.60;;;2.20;99.90;;;;;;5136149;27;20485;-80
2022/12/07 07:05:04;;;;;;;0.40;0.40;;;2.20;99.90;;;;;;5136138;27;20467;-80
2022/12/07 07:07:32;;;;;;;5.40;0.77;;;2.20;99.90;;;;;;5135907;27;20885;-80
2022/12/07 07:09:59;;;;;;;3.07;0.97;;;2.20;99.90;;;;;;5135799;27;20453;-79
2022/12/07 07:12:26;;;;;;;0.30;0.30;;;2.30;99.90;;;;;;5136110;27;20443;-80
2022/12/07 07:14:52;;;;;;;0.40;0.40;;;2.30;99.90;;;;;;5135970;27;20539;-79
2022/12/07 07:17:19;;;;;;;0.80;0.50;;;2.30;99.90;;;;;;5136763;27;20447;-79
2022/12/07 07:19:46;;;;;;;0.80;0.37;;;2.30;99.90;;;;;;5136055;27;20447;-80
2022/12/07 07:22:13;;;;;;;0.50;0.50;;;2.40;99.90;;;;;;5135396;27;20854;-79
2022/12/07 07:24:41;;;;;;;0.40;0.40;;;2.40;99.90;;;;;;5135882;27;20821;-80
2022/12/07 07:27:08;;;;;;;0.97;0.67;;;2.30;99.90;;;;;;5135784;27;20447;-80
2022/12/07 07:29:34;;;;;;;0.37;0.37;;;2.40;99.90;;;;;;5135644;27;20458;-79
2022/12/07 07:32:01;;;;;;;0.30;0.30;;;2.40;99.90;;;;;;5135683;27;20443;-80
2022/12/07 07:34:28;;;;;;;2.47;2.20;;;2.40;99.90;;;;;;5135294;27;20446;-80
2022/12/07 07:36:55;;;;;;;0.97;0.87;;;2.30;99.90;;;;;;5135195;27;20474;-80
2022/12/07 07:39:22;;;;;;;0.30;0.30;;;2.40;99.90;;;;;;5135226;27;20449;-80
2022/12/07 07:41:50;;;;;;;0.60;0.60;;;2.40;99.90;;;;;;5135098;27;20993;-80
2022/12/07 07:44:16;;;;;;;0.40;0.30;;;2.30;99.90;;;;;;5135460;27;20509;-79
2022/12/07 07:46:43;;;;;;;0.43;0.43;;;2.40;99.90;;;;;;5135001;27;20814;-80
2022/12/07 07:49:10;;;;;;;0.60;0.50;;;2.40;99.90;;;;;;5135054;27;20953;-80
2022/12/07 07:51:37;;;;;;;0.30;0.20;;;2.50;99.90;;;;;;5135322;27;20447;-80
2022/12/07 07:54:04;;;;;;;0.60;0.30;;;2.50;99.90;;;;;;5135273;27;20443;-79
2022/12/07 07:56:31;;;;;;;0.50;0.50;;;2.50;99.90;;;;;;5135134;27;20477;-79
2022/12/07 07:58:59;;;;;;;0.83;0.83;;;2.60;99.90;;;;;;5134877;27;20454;-79
2022/12/07 08:01:26;;;;;;;0.60;0.40;;;2.70;99.90;;;;;;5135080;27;20839;-79
2022/12/07 08:03:53;;;;;;;0.37;0.33;;;2.70;99.90;;;;;;5135062;27;20524;-79
2022/12/07 08:06:19;;;;;;;0.30;0.30;;;2.80;99.90;;;;;;5134840;27;20466;-80
2022/12/07 08:08:46;;;;;;;0.40;0.33;;;2.90;99.90;;;;;;5134813;27;20450;-80
2022/12/07 08:11:13;;;;;;;0.40;0.40;;;2.90;99.90;;;;;;5134809;27;20446;-79
2022/12/07 08:13:40;;;;;;;1.17;0.50;;;2.90;99.90;;;;;;5134524;27;20461;-79
2022/12/07 08:16:11;;;;;;;0.30;0.30;;;2.90;99.90;;;;;;5136369;27;21003;-80
2022/12/07 08:18:39;;;;;;;0.40;0.40;;;2.80;99.90;;;;;;5136537;27;20427;-79
2022/12/07 08:21:07;;;;;;;0.40;0.30;;;2.80;99.90;;;;;;5135751;27;20540;-79
2022/12/07 08:23:34;;;;;;;1.03;0.83;;;2.90;99.90;;;;;;5138987;27;20439;-79
2022/12/07 08:26:02;;;;;;;3.47;0.90;;;3.00;99.90;;;;;;5137045;27;20458;-79
2022/12/07 08:28:28;;;;;;;0.40;0.33;;;3.10;99.90;;;;;;5134598;27;20438;-80
2022/12/07 08:31:00;;;;;;;2.00;1.27;;;3.10;99.90;;;;;;5134563;27;20439;-79
2022/12/07 08:33:28;;;;;;;0.30;0.30;;;3.10;99.90;;;;;;5134285;27;20951;-80
2022/12/07 08:35:55;;;;;;;0.50;0.50;;;3.10;99.90;;;;;;5134137;27;20466;-80
2022/12/07 08:38:22;;;;;;;1.00;0.40;;;3.10;99.90;;;;;;5134289;27;20942;-79
2022/12/07 08:40:55;;;;;;;0.30;0.23;;;3.00;99.90;;;;;;5134409;27;20441;-79
2022/12/07 08:43:22;;;;;;;1.90;1.03;;;3.00;99.90;;;;;;5134359;27;20509;-79
2022/12/07 08:45:54;;;;;;;0.40;0.40;;;3.10;99.90;;;;;;5134557;27;20829;-80
2022/12/07 08:48:24;;;;;;;0.63;0.57;;;3.20;99.90;;;;;;5134377;27;20423;-80
2022/12/07 08:50:52;;;;;;;2.83;0.60;;;3.30;99.90;;;;;;5134320;27;20443;-79
2022/12/07 08:53:19;;;;;;;0.40;0.40;;;3.40;99.90;;;;;;5134319;27;20442;-79
2022/12/07 08:55:47;;;;;;;0.50;0.50;;;3.50;99.90;;;;;;5133883;27;20466;-79
2022/12/07 08:58:14;;;;;;;0.40;0.40;;;3.60;99.90;;;;;;5134153;27;20798;-79
2022/12/07 09:00:41;;;;;;;0.30;0.30;;;3.60;99.90;;;;;;5134216;27;20804;-79
2022/12/07 09:03:07;;;;;;;0.40;0.30;;;3.70;99.90;;;;;;5134083;27;20478;-79
2022/12/07 09:05:34;;;;;;;0.40;0.37;;;3.70;99.90;;;;;;5134125;27;20481;-79
2022/12/07 09:08:03;;;;;;;0.30;0.30;;;3.80;99.90;;;;;;5134187;27;20443;-80
2022/12/07 09:10:30;;;;;;;0.30;0.30;;;3.80;99.90;;;;;;5134144;27;20581;-79
2022/12/07 09:13:00;;;;;;;0.77;0.77;;;3.80;99.90;;;;;;5134130;27;20447;-80
2022/12/07 09:15:27;;;;;;;2.93;0.50;;;3.80;99.90;;;;;;5133985;27;20470;-78
2022/12/07 09:17:54;;;;;;;0.90;0.83;;;3.90;99.90;;;;;;5133660;27;20994;-79
2022/12/07 09:20:21;;;;;;;0.30;0.30;;;4.00;99.90;;;;;;5134494;27;20476;-79
2022/12/07 09:22:48;;;;;;;1.53;1.30;;;4.00;99.90;;;;;;5138132;27;20484;-79
2022/12/07 09:25:16;;;;;;;0.30;0.30;;;4.10;99.90;;;;;;5137742;27;20984;-79
2022/12/07 09:27:43;;;;;;;0.30;0.30;;;4.20;99.90;;;;;;5138039;27;20829;-79
2022/12/07 09:30:10;;;;;;;0.93;0.50;;;4.30;99.90;;;;;;5137761;27;20419;-79
2022/12/07 09:32:37;;;;;;;0.30;0.30;;;4.40;99.90;;;;;;5137654;27;20454;-78
2022/12/07 09:35:04;;;;;;;2.73;0.50;;;4.50;99.90;;;;;;5137548;27;20888;-79
2022/12/07 09:37:34;;;;;;;0.30;0.30;;;4.50;99.90;;;;;;5137765;27;20447;-77
2022/12/07 09:40:01;;;;;;;0.40;0.30;;;4.60;99.90;;;;;;5137800;27;20439;-77
2022/12/07 09:42:33;;;;;;;1.47;0.40;;;4.60;99.90;;;;;;5137611;27;20478;-77
2022/12/07 09:45:01;;;;;;;0.60;0.30;;;4.70;99.90;;;;;;5137626;27;20467;-77
2022/12/07 09:47:29;;;;;;;0.53;0.53;;;4.70;99.90;;;;;;5137622;27;20818;-77
2022/12/07 09:50:03;;;;;;;0.30;0.30;;;4.70;99.90;;;;;;5137541;27;20523;-77
2022/12/07 09:52:31;;;;;;;0.40;0.33;;;4.70;99.90;;;;;;5137496;27;20418;-77
2022/12/07 09:54:58;;;;;;;0.40;0.30;;;4.70;99.90;;;;;;5137379;27;20466;-77
2022/12/07 09:57:34;;;;;;;0.40;0.40;;;4.80;99.90;;;;;;5137075;27;20447;-77
2022/12/07 10:00:03;;;;;;;0.40;0.40;;;4.80;99.90;;;;;;5137392;27;20806;-77
2022/12/07 10:02:37;;;;;;;4.63;0.97;;;5.00;99.90;;;;;;5136917;27;20515;-77
2022/12/07 10:05:06;;;;;;;0.70;0.37;;;5.00;99.90;;;;;;5137182;27;20462;-77
2022/12/07 10:07:33;;;;;;;0.70;0.30;;;4.80;99.90;;;;;;5136871;27;20503;-79
2022/12/07 10:10:00;;;;;;;1.27;0.40;;;4.80;99.90;;;;;;5137191;27;20439;-79
2022/12/07 10:12:27;;;;;;;1.40;0.60;;;4.90;99.90;;;;;;5137138;27;20434;-79
2022/12/07 10:15:02;;;;;;;0.33;0.30;;;5.00;99.90;;;;;;5137006;27;20470;-79
2022/12/07 10:17:32;;;;;;;1.33;0.50;;;5.10;99.90;;;;;;5136764;27;20431;-79
2022/12/07 10:20:17;;;;;;;0.90;0.60;;;5.20;99.90;;;;;;5137240;27;20451;-79
2022/12/07 10:22:59;;;;;;;0.70;0.40;;;5.30;99.90;;;;;;5137384;27;20463;-77
2022/12/07 10:25:28;;;;;;;0.60;0.60;;;5.40;99.90;;;;;;5136822;27;20470;-77
2022/12/07 10:28:04;;;;;;;0.50;0.50;;;5.50;99.90;;;;;;5136511;27;20451;-79
2022/12/07 10:30:33;;;;;;;0.30;0.30;;;5.50;99.90;;;;;;5136817;27;20441;-79
2022/12/07 10:33:00;;;;;;;2.33;1.20;;;5.40;99.90;;;;;;5136063;27;20449;-79
2022/12/07 10:35:29;;;;;;;0.80;0.40;;;5.30;99.90;;;;;;5136639;27;20459;-79
2022/12/07 10:37:58;;;;;;;0.30;0.30;;;5.50;99.90;;;;;;5137083;27;20446;-79
2022/12/07 10:40:34;;;;;;;0.30;0.30;;;5.40;99.90;;;;;;5136636;27;20474;-79
2022/12/07 10:43:19;;;;;;;0.50;0.40;;;5.50;99.90;;;;;;5136492;27;20482;-79
2022/12/07 10:46:18;;;;;;;0.87;0.50;;;5.60;99.90;;;;;;5136558;27;20484;-79
2022/12/07 10:48:55;;;;;;;0.30;0.20;;;5.60;99.90;;;;;;5138260;27;20442;-79
2022/12/07 10:51:27;;;;;;;1.33;0.30;;;5.70;99.90;;;;;;5150839;27;20438;-79
2022/12/07 10:54:02;;;;;;;0.30;0.30;;;5.80;99.90;;;;;;5151968;27;20458;-79
2022/12/07 10:56:53;;;;;;;1.67;0.40;;;5.70;99.90;;;;;;5145974;27;20827;-79
2022/12/07 10:59:53;;;;;;;0.30;0.30;;;5.60;99.90;;;;;;5139547;27;20439;-79
2022/12/07 11:02:40;;;;;;;0.90;0.53;;;5.60;99.90;;;;;;5110355;27;20481;-79
2022/12/07 11:05:18;;;;;;;0.93;0.50;;;5.60;99.90;;;;;;5153102;27;20470;-79
2022/12/07 11:07:56;;;;;;;6.87;0.90;;;5.60;99.90;;;;;;5123472;27;20440;-79
2022/12/07 11:10:29;;;;;;;0.40;0.33;;;5.70;99.90;;;;;;5147234;27;20441;-79
2022/12/07 11:13:11;;;;;;;0.30;0.30;;;5.70;99.90;;;;;;5150055;27;20426;-79
2022/12/07 11:15:51;;;;;;;1.80;0.53;;;5.60;99.90;;;;;;5156673;27;20457;-79
2022/12/07 11:18:25;;;;;;;0.40;0.30;;;5.60;99.90;;;;;;5158059;27;20426;-78
2022/12/07 11:21:00;;;;;;;3.50;0.40;;;5.60;99.90;;;;;;5159498;27;20473;-78
2022/12/07 11:23:39;;;;;;;1.33;0.57;;;5.70;99.90;;;;;;5159474;27;20990;-79
2022/12/07 11:26:17;;;;;;;0.43;0.33;;;5.80;99.90;;;;;;5160158;27;21024;-78
2022/12/07 11:29:02;;;;;;;0.40;0.40;;;5.80;99.90;;;;;;5160016;27;20501;-78
2022/12/07 11:31:35;;;;;;;0.40;0.40;;;5.80;99.90;;;;;;5161170;27;20437;-79
2022/12/07 11:34:10;;;;;;;0.40;0.40;;;5.80;99.90;;;;;;5157130;27;20430;-79
2022/12/07 11:36:41;;;;;;;0.30;0.30;;;5.90;99.90;;;;;;5156202;27;20472;-79
2022/12/07 11:39:20;;;;;;;1.73;0.70;;;5.80;99.90;;;;;;5156219;27;20446;-79
2022/12/07 11:41:49;;;;;;;0.50;0.40;;;5.90;99.90;;;;;;5156126;27;20429;-79
2022/12/07 11:44:28;;;;;;;1.37;0.50;;;5.90;99.90;;;;;;5155758;27;20445;-79
2022/12/07 11:47:00;;;;;;;0.67;0.40;;;5.70;99.90;;;;;;5152656;27;20474;-80
2022/12/07 11:49:42;;;;;;;0.40;0.40;;;5.70;99.90;;;;;;5135382;27;20435;-79
2022/12/07 11:52:19;;;;;;;0.40;0.40;;;5.80;99.90;;;;;;5135262;27;20480;-79
2022/12/07 11:54:50;;;;;;;0.50;0.50;;;5.90;99.90;;;;;;5135101;27;20839;-79
2022/12/07 11:57:21;;;;;;;0.40;0.30;;;6.00;99.90;;;;;;5135202;27;20436;-79
2022/12/07 11:59:53;;;;;;;0.50;0.50;;;6.10;99.90;;;;;;5135193;27;20434;-79
2022/12/07 12:02:25;;;;;;;0.50;0.50;;;6.10;99.90;;;;;;5135080;27;20847;-79
2022/12/07 12:04:59;;;;;;;0.50;0.50;;;6.00;99.90;;;;;;5136573;27;20456;-79
2022/12/07 12:07:28;;;;;;;0.50;0.50;;;5.90;99.90;;;;;;5130394;27;20485;-82
2022/12/07 12:10:02;;;;;;;0.80;0.47;;;5.80;99.90;;;;;;5114448;28;20446;-78
2022/12/07 12:12:50;;;;;;;2.40;0.73;;;5.80;99.90;;;;;;5114502;28;20432;-79
2022/12/07 12:15:30;;;;;;;0.40;0.30;;;5.80;99.90;;;;;;5112496;28;20471;-79
2022/12/07 12:18:27;;;;;;;0.40;0.30;;;5.70;99.90;;;;;;5114063;28;20428;-78
2022/12/07 12:20:59;;;;;;;0.30;0.20;;;5.70;99.90;;;;;;5114016;28;20483;-79
2022/12/07 12:23:36;;;;;;;2.87;0.70;;;5.60;99.90;;;;;;5113966;28;20459;-79
2022/12/07 12:26:05;;;;;;;0.40;0.30;;;5.60;99.90;;;;;;5114175;28;20550;-79
2022/12/07 12:28:40;;;;;;;0.40;0.40;;;5.60;99.90;;;;;;5114140;28;20939;-79
2022/12/07 12:31:15;;;;;;;0.50;0.50;;;5.60;99.90;;;;;;5114153;28;20443;-79
2022/12/07 12:33:45;;;;;;;0.40;0.40;;;5.50;99.90;;;;;;5114079;28;20427;-79
2022/12/07 12:36:26;;;;;;;0.40;0.33;;;5.40;99.90;;;;;;5114047;28;20467;-79
2022/12/07 12:39:13;;;;;;;0.97;0.97;;;5.50;99.90;;;;;;5141479;27;20434;-79
2022/12/07 12:42:08;;;;;;;0.60;0.60;;;5.50;99.90;;;;;;5134856;27;20487;-79
2022/12/07 12:45:14;;;;;;;0.40;0.40;;;5.60;99.90;;;;;;5116117;27;20433;-79
2022/12/07 12:47:44;;;;;;;0.40;0.40;;;5.60;99.90;;;;;;5135281;27;20524;-79
2022/12/07 12:50:19;;;;;;;0.40;0.30;;;5.70;99.90;;;;;;5134717;27;20454;-79
2022/12/07 12:53:08;;;;;;;0.60;0.40;;;5.70;99.90;;;;;;5134121;27;20431;-79
2022/12/07 12:56:08;;;;;;;0.40;0.30;;;5.70;99.90;;;;;;5133307;27;20462;-79
2022/12/07 12:58:43;;;;;;;0.30;0.30;;;5.60;99.90;;;;;;5134086;27;20929;-79
2022/12/07 13:01:40;;;;;;;0.30;0.20;;;5.60;99.90;;;;;;5134143;27;20426;-79
2022/12/07 13:04:28;;;;;;;0.40;0.40;;;5.60;99.90;;;;;;5134200;27;20486;-79
2022/12/07 13:06:55;;;;;;;0.30;0.30;;;5.60;99.90;;;;;;5133845;27;20985;-79
2022/12/07 13:09:26;;;;;;;0.30;0.30;;;5.60;99.90;;;;;;5134306;27;20435;-80
2022/12/07 13:12:03;;;;;;;0.40;0.30;;;5.60;99.90;;;;;;5134283;27;20427;-80
2022/12/07 13:14:58;;;;;;;0.40;0.40;;;5.60;99.90;;;;;;5134264;27;20793;-79
2022/12/07 13:17:57;;;;;;;0.63;0.63;;;5.60;99.90;;;;;;5134198;27;20431;-79
2022/12/07 13:20:55;;;;;;;0.30;0.20;;;5.70;99.90;;;;;;5133680;27;20957;-79